Time;durP1;ratioP1;P1;durP2;ratioP2;P2;SDS_P1;SDS_P2;PMS_P1;PMS_P2;Temp;Humidity;BMP_temperature;BMP_pressure;BME280_temperature;BME280_humidity;BME280_pressure;Samples;Min_cycle;Max_cycle;Signal;HPM_P1;HPM_P2
2024/04/24 00:00:04;;;;;;;3.77;2.97;;;;;;;;;;6680230;26;20019;-76
2024/04/24 00:03:05;;;;;;;2.77;2.57;;;;;;;;;;6683926;26;20014;-75
2024/04/24 00:06:05;;;;;;;3.07;2.77;;;;;;;;;;6678533;26;20531;-75
2024/04/24 00:09:05;;;;;;;2.87;2.67;;;;;;;;;;6687350;26;20000;-76
2024/04/24 00:12:05;;;;;;;2.80;2.57;;;;;;;;;;6691685;26;20023;-75
2024/04/24 00:15:06;;;;;;;3.10;2.63;;;;;;;;;;6687800;26;20326;-76
2024/04/24 00:18:07;;;;;;;3.28;2.80;;;;;;;;;;6690582;26;20049;-76
2024/04/24 00:21:10;;;;;;;3.50;2.90;;;;;;;;;;6688781;26;20396;-75
2024/04/24 00:24:15;;;;;;;2.95;2.65;;;;;;;;;;6699114;26;20000;-76
2024/04/24 00:27:15;;;;;;;3.35;3.00;;;;;;;;;;6684023;26;20002;-76
2024/04/24 00:30:16;;;;;;;2.93;2.63;;;;;;;;;;6681301;26;20309;-74
2024/04/24 00:33:16;;;;;;;2.97;2.53;;;;;;;;;;6687263;26;20473;-75
2024/04/24 00:36:16;;;;;;;3.30;2.50;;;;;;;;;;6683666;26;20639;-76
2024/04/24 00:39:16;;;;;;;2.93;2.63;;;;;;;;;;6672947;26;20484;-76
2024/04/24 00:42:20;;;;;;;3.37;2.97;;;;;;;;;;6682941;26;19992;-76
2024/04/24 00:45:20;;;;;;;2.80;2.50;;;;;;;;;;6681538;26;20000;-76
2024/04/24 00:48:20;;;;;;;2.73;2.53;;;;;;;;;;6680987;26;20073;-76
2024/04/24 00:51:21;;;;;;;4.43;2.93;;;;;;;;;;6701626;26;20018;-76
2024/04/24 00:54:24;;;;;;;2.43;2.23;;;;;;;;;;6700506;26;20448;-76
2024/04/24 00:57:25;;;;;;;3.08;2.70;;;;;;;;;;6686687;26;19999;-76
2024/04/24 01:00:25;;;;;;;2.90;2.60;;;;;;;;;;6680346;26;20020;-75
2024/04/24 01:03:25;;;;;;;2.90;2.53;;;;;;;;;;6681794;26;20336;-76
2024/04/24 01:06:26;;;;;;;2.73;2.47;;;;;;;;;;6687670;26;20481;-75
2024/04/24 01:09:26;;;;;;;3.30;2.70;;;;;;;;;;6695770;26;20345;-75
2024/04/24 01:12:26;;;;;;;3.03;2.63;;;;;;;;;;6695880;26;20345;-76
2024/04/24 01:15:26;;;;;;;3.43;2.90;;;;;;;;;;6688825;26;20451;-75
2024/04/24 01:18:27;;;;;;;3.40;3.10;;;;;;;;;;6684911;26;20437;-76
2024/04/24 01:21:38;;;;;;;2.92;2.63;;;;;;;;;;6680987;26;20012;-75
2024/04/24 01:24:41;;;;;;;2.83;2.55;;;;;;;;;;6693694;26;20000;-75
2024/04/24 01:27:42;;;;;;;3.15;2.63;;;;;;;;;;6691504;26;20014;-75
2024/04/24 01:30:42;;;;;;;2.80;2.53;;;;;;;;;;6694098;26;20011;-76
2024/04/24 01:33:42;;;;;;;3.40;2.73;;;;;;;;;;6671882;26;20008;-75
2024/04/24 01:36:43;;;;;;;3.20;2.90;;;;;;;;;;6684632;26;20007;-76
2024/04/24 01:39:43;;;;;;;3.10;2.80;;;;;;;;;;6689800;26;20024;-76
2024/04/24 01:42:43;;;;;;;3.50;2.90;;;;;;;;;;6679585;26;20539;-76
2024/04/24 01:45:43;;;;;;;2.83;2.53;;;;;;;;;;6688009;26;20441;-76
2024/04/24 01:48:44;;;;;;;3.20;2.90;;;;;;;;;;6692139;26;20317;-75
2024/04/24 01:51:44;;;;;;;3.30;2.87;;;;;;;;;;6697204;26;20332;-76
2024/04/24 01:54:44;;;;;;;4.00;2.77;;;;;;;;;;6696807;26;20433;-75
2024/04/24 01:57:44;;;;;;;2.97;2.67;;;;;;;;;;6686850;26;20432;-76
2024/04/24 02:00:45;;;;;;;3.17;2.80;;;;;;;;;;6689116;26;20524;-75
2024/04/24 02:03:45;;;;;;;2.63;2.43;;;;;;;;;;6673878;26;19996;-75
2024/04/24 02:06:45;;;;;;;3.20;2.50;;;;;;;;;;6686559;26;19996;-76
2024/04/24 02:09:45;;;;;;;3.47;2.97;;;;;;;;;;6678996;26;20000;-76
2024/04/24 02:12:45;;;;;;;3.23;2.50;;;;;;;;;;6683157;26;20354;-75
2024/04/24 02:15:46;;;;;;;3.10;2.70;;;;;;;;;;6675005;26;20437;-76
2024/04/24 02:18:46;;;;;;;3.07;2.60;;;;;;;;;;6679971;26;20024;-76
2024/04/24 02:21:46;;;;;;;3.10;2.80;;;;;;;;;;6691993;26;20528;-76
2024/04/24 02:28:06;;;;;;;2.75;2.45;;;;;;;;;;6678955;26;20000;-75
2024/04/24 02:31:06;;;;;;;2.67;2.45;;;;;;;;;;6685040;26;20148;-75
2024/04/24 02:34:07;;;;;;;3.57;2.57;;;;;;;;;;6671810;26;20503;-76
2024/04/24 02:37:07;;;;;;;3.07;2.50;;;;;;;;;;6707477;26;20425;-75
2024/04/24 02:40:07;;;;;;;2.87;2.57;;;;;;;;;;6698880;26;20028;-76
2024/04/24 02:43:08;;;;;;;2.87;2.60;;;;;;;;;;6702921;26;20072;-76
2024/04/24 02:46:08;;;;;;;2.73;2.53;;;;;;;;;;6705607;26;20347;-76
2024/04/24 02:49:08;;;;;;;2.57;2.37;;;;;;;;;;6750822;26;20458;-76
2024/04/24 02:52:08;;;;;;;2.87;2.57;;;;;;;;;;6725354;26;19996;-75
2024/04/24 02:55:09;;;;;;;3.00;2.40;;;;;;;;;;6680454;26;20036;-74
2024/04/24 02:58:09;;;;;;;2.43;2.23;;;;;;;;;;6684683;26;20020;-74
2024/04/24 03:01:13;;;;;;;2.93;2.67;;;;;;;;;;6680192;26;20452;-75
2024/04/24 03:04:13;;;;;;;2.88;2.45;;;;;;;;;;6681416;26;20004;-75
2024/04/24 03:07:13;;;;;;;2.33;2.13;;;;;;;;;;6685094;26;19998;-74
2024/04/24 03:10:14;;;;;;;2.63;2.30;;;;;;;;;;6686572;26;20451;-74
2024/04/24 03:13:14;;;;;;;3.00;2.47;;;;;;;;;;6668931;26;20485;-75
2024/04/24 03:16:14;;;;;;;2.33;2.13;;;;;;;;;;6692404;26;20084;-74
2024/04/24 03:19:15;;;;;;;2.83;2.57;;;;;;;;;;6688471;26;20001;-74
2024/04/24 03:22:15;;;;;;;2.47;2.27;;;;;;;;;;6649238;26;20452;-74
2024/04/24 03:25:15;;;;;;;3.17;2.77;;;;;;;;;;6685484;26;20012;-74
2024/04/24 03:28:15;;;;;;;2.97;2.77;;;;;;;;;;6696394;26;20463;-74
2024/04/24 03:31:16;;;;;;;3.33;3.03;;;;;;;;;;6676883;26;20445;-75
2024/04/24 03:34:16;;;;;;;3.33;2.70;;;;;;;;;;6673141;26;20561;-75
2024/04/24 03:37:16;;;;;;;3.33;2.80;;;;;;;;;;6677977;26;20437;-74
2024/04/24 03:40:18;;;;;;;3.87;2.97;;;;;;;;;;6717698;26;19996;-74
2024/04/24 03:43:18;;;;;;;;;;;;;;;;;;6683578;26;20518;-74
2024/04/24 03:46:18;;;;;;;2.38;2.17;;;;;;;;;;6682121;26;19926;-75
2024/04/24 03:49:18;;;;;;;3.40;2.63;;;;;;;;;;6680697;26;19996;-74
2024/04/24 03:52:19;;;;;;;2.73;2.53;;;;;;;;;;6672818;26;19996;-75
2024/04/24 03:55:19;;;;;;;3.45;2.47;;;;;;;;;;6678570;26;19992;-74
2024/04/24 03:58:20;;;;;;;3.17;2.87;;;;;;;;;;6685570;26;19996;-74
2024/04/24 04:01:22;;;;;;;3.03;2.73;;;;;;;;;;6683405;26;19988;-76
2024/04/24 04:04:22;;;;;;;3.80;3.15;;;;;;;;;;6679966;26;20016;-76
2024/04/24 04:07:22;;;;;;;3.03;2.73;;;;;;;;;;6690087;26;20338;-76
2024/04/24 04:10:23;;;;;;;2.83;2.50;;;;;;;;;;6679373;26;20325;-76
2024/04/24 04:13:23;;;;;;;3.00;2.70;;;;;;;;;;6676900;26;20346;-76
2024/04/24 04:16:23;;;;;;;4.83;2.97;;;;;;;;;;6676770;26;20019;-76
2024/04/24 04:19:23;;;;;;;3.10;2.80;;;;;;;;;;6676726;26;20353;-76
2024/04/24 04:22:25;;;;;;;3.13;2.53;;;;;;;;;;6685765;26;19999;-76
2024/04/24 04:25:25;;;;;;;2.95;2.70;;;;;;;;;;6684462;26;20448;-76
2024/04/24 04:28:25;;;;;;;3.13;2.83;;;;;;;;;;6676595;26;19996;-76
2024/04/24 04:31:26;;;;;;;4.67;3.00;;;;;;;;;;6658665;26;20036;-76
2024/04/24 04:34:26;;;;;;;3.60;2.78;;;;;;;;;;6677768;26;20425;-76
2024/04/24 04:37:27;;;;;;;3.40;2.80;;;;;;;;;;6686624;26;20008;-76
2024/04/24 04:40:27;;;;;;;2.43;2.23;;;;;;;;;;6688437;26;20086;-76
2024/04/24 04:43:27;;;;;;;3.20;2.60;;;;;;;;;;6686461;26;20015;-76
2024/04/24 04:46:28;;;;;;;3.17;2.87;;;;;;;;;;6682644;26;20028;-77
2024/04/24 04:49:28;;;;;;;2.60;2.37;;;;;;;;;;6677973;26;20458;-76
2024/04/24 04:52:29;;;;;;;2.43;2.23;;;;;;;;;;6689878;26;20449;-76
2024/04/24 04:55:29;;;;;;;3.00;2.33;;;;;;;;;;6700903;26;19999;-76
2024/04/24 04:58:30;;;;;;;2.93;2.53;;;;;;;;;;6680788;26;20037;-76
2024/04/24 05:01:30;;;;;;;2.90;2.20;;;;;;;;;;6688805;26;20328;-76
2024/04/24 05:04:30;;;;;;;3.47;2.43;;;;;;;;;;6686040;26;20539;-76
2024/04/24 05:07:30;;;;;;;3.63;2.60;;;;;;;;;;6680673;26;20494;-76
2024/04/24 05:10:31;;;;;;;3.57;2.70;;;;;;;;;;6693957;26;20452;-76
2024/04/24 05:13:31;;;;;;;2.97;2.50;;;;;;;;;;6687744;26;20046;-76
2024/04/24 05:16:31;;;;;;;3.03;2.67;;;;;;;;;;6691634;26;20000;-75
2024/04/24 05:19:31;;;;;;;2.77;2.47;;;;;;;;;;6690323;26;20409;-76
2024/04/24 05:22:40;;;;;;;3.00;2.70;;;;;;;;;;6683612;26;20010;-76
2024/04/24 05:25:40;;;;;;;3.17;2.88;;;;;;;;;;6315557;26;10000391;-76
2024/04/24 05:31:59;;;;;;;3.03;2.72;;;;;;;;;;6680033;26;20001;-76
2024/04/24 05:35:00;;;;;;;4.80;2.80;;;;;;;;;;6701036;26;20328;-76
2024/04/24 05:38:00;;;;;;;2.50;2.23;;;;;;;;;;6687247;26;20005;-76
2024/04/24 05:41:00;;;;;;;3.50;2.73;;;;;;;;;;6690502;26;20380;-75
2024/04/24 05:44:00;;;;;;;4.30;3.30;;;;;;;;;;6689819;26;20384;-77
2024/04/24 05:47:04;;;;;;;3.57;3.00;;;;;;;;;;6685883;26;20362;-76
2024/04/24 05:50:04;;;;;;;3.10;2.70;;;;;;;;;;6688572;26;20509;-77
2024/04/24 05:53:05;;;;;;;3.00;2.63;;;;;;;;;;6678029;26;20008;-76
2024/04/24 05:56:05;;;;;;;2.80;2.50;;;;;;;;;;6679025;26;19996;-76
2024/04/24 05:59:05;;;;;;;3.23;2.43;;;;;;;;;;6683601;26;20221;-76
2024/04/24 06:02:06;;;;;;;3.10;2.40;;;;;;;;;;6693995;26;20956;-77
2024/04/24 06:05:06;;;;;;;3.57;2.50;;;;;;;;;;6698043;26;20889;-76
2024/04/24 06:08:06;;;;;;;3.47;2.80;;;;;;;;;;6688550;26;20549;-77
2024/04/24 06:11:06;;;;;;;3.53;2.60;;;;;;;;;;6684992;26;20428;-76
2024/04/24 06:14:07;;;;;;;3.73;2.43;;;;;;;;;;6688033;26;20370;-76
2024/04/24 06:17:07;;;;;;;3.03;2.67;;;;;;;;;;6679087;26;20036;-76
2024/04/24 06:20:08;;;;;;;3.70;2.93;;;;;;;;;;6687829;26;20084;-76
2024/04/24 06:23:09;;;;;;;4.20;2.73;;;;;;;;;;6677567;26;20007;-75
2024/04/24 06:26:09;;;;;;;3.50;2.80;;;;;;;;;;6680586;26;20015;-76
2024/04/24 06:29:09;;;;;;;3.67;2.67;;;;;;;;;;6682603;26;20444;-76
2024/04/24 06:32:09;;;;;;;3.73;2.40;;;;;;;;;;6684378;26;19989;-76
2024/04/24 06:35:10;;;;;;;3.20;2.57;;;;;;;;;;6689753;26;20032;-75
2024/04/24 06:38:10;;;;;;;2.53;2.30;;;;;;;;;;6692819;26;20456;-76
2024/04/24 06:41:12;;;;;;;2.03;1.83;;;;;;;;;;6665720;26;20049;-75
2024/04/24 06:44:13;;;;;;;3.03;1.95;;;;;;;;;;6656813;26;20512;-76
2024/04/24 06:47:13;;;;;;;3.10;2.23;;;;;;;;;;6684264;26;20073;-80
2024/04/24 06:50:13;;;;;;;2.30;1.83;;;;;;;;;;6685171;26;20508;-75
2024/04/24 06:53:14;;;;;;;3.17;2.20;;;;;;;;;;6679780;26;20383;-75
2024/04/24 06:56:14;;;;;;;2.87;2.17;;;;;;;;;;6687790;26;19992;-75
2024/04/24 06:59:14;;;;;;;2.33;2.07;;;;;;;;;;6681380;26;20431;-75
2024/04/24 07:02:14;;;;;;;2.77;2.37;;;;;;;;;;6681132;26;20846;-75
2024/04/24 07:05:15;;;;;;;2.60;2.00;;;;;;;;;;6690522;26;20032;-75
2024/04/24 07:08:15;;;;;;;2.50;2.17;;;;;;;;;;6647276;26;20024;-75
2024/04/24 07:11:15;;;;;;;1.80;1.60;;;;;;;;;;6680708;26;19996;-75
2024/04/24 07:14:15;;;;;;;2.53;1.90;;;;;;;;;;6683737;26;20643;-75
2024/04/24 07:17:16;;;;;;;3.10;1.73;;;;;;;;;;6676835;26;20485;-75
2024/04/24 07:20:16;;;;;;;2.00;1.70;;;;;;;;;;6685938;26;19992;-75
2024/04/24 07:23:16;;;;;;;2.80;2.03;;;;;;;;;;6679583;26;19991;-75
2024/04/24 07:26:17;;;;;;;2.53;2.03;;;;;;;;;;6699266;26;20003;-75
2024/04/24 07:29:18;;;;;;;2.95;2.28;;;;;;;;;;6699607;26;20015;-75
2024/04/24 07:32:18;;;;;;;2.80;1.83;;;;;;;;;;6685155;26;19993;-76
2024/04/24 07:35:18;;;;;;;3.07;2.40;;;;;;;;;;6697243;26;20425;-76
2024/04/24 07:38:18;;;;;;;2.40;2.20;;;;;;;;;;6707834;26;20711;-76
2024/04/24 07:41:19;;;;;;;2.20;2.00;;;;;;;;;;6708104;26;20365;-76
2024/04/24 07:44:19;;;;;;;2.17;1.83;;;;;;;;;;6740056;26;20025;-76
2024/04/24 07:47:19;;;;;;;2.00;1.70;;;;;;;;;;6684113;26;20026;-76
2024/04/24 07:50:19;;;;;;;3.00;2.07;;;;;;;;;;6697493;26;20322;-76
2024/04/24 07:53:20;;;;;;;3.63;2.13;;;;;;;;;;6675351;26;20018;-76
2024/04/24 07:56:20;;;;;;;2.97;2.13;;;;;;;;;;6687548;26;20489;-76
2024/04/24 07:59:20;;;;;;;3.40;2.47;;;;;;;;;;6696806;26;19995;-76
2024/04/24 08:02:21;;;;;;;2.97;2.00;;;;;;;;;;6668348;26;20064;-76
2024/04/24 08:05:22;;;;;;;4.93;2.47;;;;;;;;;;6683198;26;20432;-76
2024/04/24 08:08:22;;;;;;;3.15;2.38;;;;;;;;;;6683612;26;20459;-76
2024/04/24 08:11:22;;;;;;;3.50;2.47;;;;;;;;;;6676569;26;20066;-76
2024/04/24 08:14:22;;;;;;;3.57;2.33;;;;;;;;;;6679129;26;20433;-75
2024/04/24 08:17:23;;;;;;;2.83;2.50;;;;;;;;;;6704802;26;20471;-76
2024/04/24 08:20:23;;;;;;;3.00;2.43;;;;;;;;;;6687574;26;20044;-76
2024/04/24 08:23:23;;;;;;;2.53;2.23;;;;;;;;;;6686628;26;19996;-76
2024/04/24 08:26:23;;;;;;;3.20;2.20;;;;;;;;;;6703377;26;20460;-76
2024/04/24 08:29:25;;;;;;;4.10;2.90;;;;;;;;;;6686860;26;20004;-76
2024/04/24 08:32:27;;;;;;;3.13;2.65;;;;;;;;;;6689908;26;20000;-76
2024/04/24 08:35:27;;;;;;;3.15;2.50;;;;;;;;;;6691556;26;19996;-76
2024/04/24 08:38:27;;;;;;;3.57;2.57;;;;;;;;;;6685588;26;20000;-76
2024/04/24 08:41:27;;;;;;;2.80;2.27;;;;;;;;;;6685285;26;20010;-77
2024/04/24 08:44:28;;;;;;;3.70;2.67;;;;;;;;;;6682283;26;19996;-75
2024/04/24 08:47:29;;;;;;;2.28;1.98;;;;;;;;;;6683131;26;20081;-76
2024/04/24 08:50:29;;;;;;;3.57;2.50;;;;;;;;;;6663434;26;19996;-76
2024/04/24 08:53:30;;;;;;;2.60;2.37;;;;;;;;;;6693269;26;20023;-76
2024/04/24 08:56:49;;;;;;;3.20;2.38;;;;;;;;;;6673267;26;20758;-77
2024/04/24 08:59:51;;;;;;;3.25;2.40;;;;;;;;;;6683169;26;20514;-76
2024/04/24 09:02:56;;;;;;;3.22;2.28;;;;;;;;;;6685886;26;20000;-76
2024/04/24 09:05:58;;;;;;;2.67;2.30;;;;;;;;;;6681648;26;20013;-76
2024/04/24 09:08:58;;;;;;;2.47;2.13;;;;;;;;;;6687137;26;20003;-77
2024/04/24 09:12:03;;;;;;;2.90;2.27;;;;;;;;;;6690167;26;20032;-76
2024/04/24 09:15:03;;;;;;;2.63;2.10;;;;;;;;;;6682705;26;20000;-76
2024/04/24 09:18:04;;;;;;;2.47;2.27;;;;;;;;;;6679203;26;20081;-76
2024/04/24 09:21:04;;;;;;;2.70;2.13;;;;;;;;;;6698056;26;20024;-76
2024/04/24 09:24:05;;;;;;;2.57;1.83;;;;;;;;;;6685119;26;20004;-76
2024/04/24 09:27:06;;;;;;;2.47;1.90;;;;;;;;;;6686468;26;20014;-76
2024/04/24 09:30:07;;;;;;;1.65;1.52;;;;;;;;;;6692348;26;20004;-76
2024/04/24 09:33:08;;;;;;;2.63;1.70;;;;;;;;;;6708398;26;20011;-76
2024/04/24 09:36:08;;;;;;;3.47;1.70;;;;;;;;;;6693370;26;19999;-77
2024/04/24 09:39:15;;;;;;;2.57;1.83;;;;;;;;;;6685481;26;20407;-77
2024/04/24 09:42:16;;;;;;;2.05;1.77;;;;;;;;;;6679365;26;20010;-76
2024/04/24 09:45:18;;;;;;;1.88;1.60;;;;;;;;;;6694870;26;20000;-77
2024/04/24 09:48:18;;;;;;;1.80;1.63;;;;;;;;;;6685500;26;19992;-76
2024/04/24 09:51:18;;;;;;;1.93;1.57;;;;;;;;;;6689607;26;19999;-75
2024/04/24 09:54:21;;;;;;;2.07;1.77;;;;;;;;;;6689794;26;20507;-75
2024/04/24 09:57:23;;;;;;;1.98;1.77;;;;;;;;;;6683000;26;20069;-78
2024/04/24 10:00:23;;;;;;;2.10;1.67;;;;;;;;;;6683436;26;20062;-76
2024/04/24 10:03:25;;;;;;;2.03;1.67;;;;;;;;;;6686582;26;20008;-76
2024/04/24 10:06:27;;;;;;;1.95;1.75;;;;;;;;;;6687012;26;20608;-76
2024/04/24 10:09:30;;;;;;;2.40;1.90;;;;;;;;;;6674336;26;19997;-76
2024/04/24 10:12:35;;;;;;;2.00;1.85;;;;;;;;;;6680517;26;20085;-76
2024/04/24 10:15:38;;;;;;;2.28;2.00;;;;;;;;;;6697819;26;20000;-75
2024/04/24 10:18:40;;;;;;;1.77;1.67;;;;;;;;;;6686492;26;20019;-75
2024/04/24 10:21:42;;;;;;;2.70;2.03;;;;;;;;;;6681479;26;20004;-75
2024/04/24 10:24:45;;;;;;;1.92;1.80;;;;;;;;;;6681529;26;20432;-75
2024/04/24 10:27:46;;;;;;;1.95;1.80;;;;;;;;;;6693092;26;20405;-75
2024/04/24 10:30:47;;;;;;;2.13;1.92;;;;;;;;;;6708759;26;19999;-74
2024/04/24 10:33:48;;;;;;;1.93;1.80;;;;;;;;;;6691746;26;20099;-74
2024/04/24 10:36:48;;;;;;;2.50;1.83;;;;;;;;;;6693004;26;20218;-75
2024/04/24 10:39:49;;;;;;;2.43;1.83;;;;;;;;;;6677098;26;20004;-75
2024/04/24 10:42:50;;;;;;;2.30;2.10;;;;;;;;;;6685461;26;20102;-76
2024/04/24 10:45:54;;;;;;;2.22;2.03;;;;;;;;;;6680600;26;20012;-76
2024/04/24 10:48:56;;;;;;;2.28;2.05;;;;;;;;;;6701367;26;20070;-76
2024/04/24 10:51:56;;;;;;;2.53;2.10;;;;;;;;;;6687050;26;19999;-75
2024/04/24 10:55:05;;;;;;;2.17;2.00;;;;;;;;;;6684173;26;20054;-76
2024/04/24 10:58:16;;;;;;;2.28;2.08;;;;;;;;;;6684571;26;20000;-75
2024/04/24 11:01:16;;;;;;;2.53;2.10;;;;;;;;;;6677640;26;20004;-75
2024/04/24 11:04:17;;;;;;;3.53;2.13;;;;;;;;;;6675066;26;19999;-75
2024/04/24 11:07:17;;;;;;;2.47;2.15;;;;;;;;;;6689345;26;20093;-76
2024/04/24 11:10:18;;;;;;;2.70;2.20;;;;;;;;;;6683423;26;20379;-75
2024/04/24 11:13:18;;;;;;;2.80;2.17;;;;;;;;;;6684187;26;20009;-77
2024/04/24 11:16:19;;;;;;;2.40;2.20;;;;;;;;;;6682889;26;20004;-77
2024/04/24 11:19:19;;;;;;;2.40;2.20;;;;;;;;;;6691341;26;20008;-78
2024/04/24 11:22:29;;;;;;;2.57;2.37;;;;;;;;;;6688390;26;20018;-77
2024/04/24 11:25:29;;;;;;;2.33;2.13;;;;;;;;;;6686038;26;20007;-77
2024/04/24 11:28:29;;;;;;;2.53;2.20;;;;;;;;;;6695377;26;20542;-78
2024/04/24 11:31:48;;;;;;;2.40;1.87;;;;;;;;;;6682072;26;20441;-77
2024/04/24 11:34:49;;;;;;;2.45;2.25;;;;;;;;;;6683937;26;20019;-77
2024/04/24 11:37:49;;;;;;;;;;;;;;;;;;6695100;26;20076;-78
2024/04/24 11:40:50;;;;;;;2.60;1.70;;;;;;;;;;6679196;26;19933;-77
2024/04/24 11:43:50;;;;;;;2.30;2.10;;;;;;;;;;6685093;26;20448;-77
2024/04/24 11:46:51;;;;;;;2.20;2.00;;;;;;;;;;6681252;26;19996;-77
2024/04/24 11:49:51;;;;;;;2.70;2.10;;;;;;;;;;6686519;26;20082;-78
2024/04/24 11:52:51;;;;;;;2.42;2.22;;;;;;;;;;6676609;26;19996;-77
2024/04/24 11:55:52;;;;;;;2.53;2.33;;;;;;;;;;6684208;26;20012;-77
2024/04/24 11:58:52;;;;;;;2.17;1.97;;;;;;;;;;6682849;26;19996;-78
2024/04/24 12:01:52;;;;;;;2.67;2.47;;;;;;;;;;6691924;26;20496;-77
2024/04/24 12:04:53;;;;;;;3.07;2.53;;;;;;;;;;6687724;26;20007;-77
2024/04/24 12:07:53;;;;;;;3.07;2.67;;;;;;;;;;6720629;26;20000;-78
2024/04/24 12:10:58;;;;;;;2.50;2.20;;;;;;;;;;6702322;26;20039;-78
2024/04/24 12:13:59;;;;;;;2.55;2.35;;;;;;;;;;6699462;26;20007;-77
2024/04/24 12:17:00;;;;;;;2.80;2.58;;;;;;;;;;6705012;26;20018;-77
2024/04/24 12:20:00;;;;;;;3.87;3.07;;;;;;;;;;6679362;26;20002;-77
2024/04/24 12:23:01;;;;;;;3.20;2.87;;;;;;;;;;6692526;26;19988;-78
2024/04/24 12:26:01;;;;;;;2.63;2.38;;;;;;;;;;6656694;26;20012;-77
2024/04/24 12:29:01;;;;;;;3.20;2.77;;;;;;;;;;6685374;26;20119;-77
2024/04/24 12:32:02;;;;;;;2.53;2.33;;;;;;;;;;6686003;26;20015;-78
2024/04/24 12:35:03;;;;;;;3.00;2.80;;;;;;;;;;6694559;26;20000;-77
2024/04/24 12:38:03;;;;;;;3.13;2.50;;;;;;;;;;6685881;26;19996;-78
2024/04/24 12:41:04;;;;;;;3.73;2.90;;;;;;;;;;6689421;26;20341;-77
2024/04/24 12:44:05;;;;;;;3.03;2.70;;;;;;;;;;6677905;26;20004;-77
2024/04/24 12:47:05;;;;;;;3.20;2.90;;;;;;;;;;6691671;26;20334;-77
2024/04/24 12:50:06;;;;;;;2.83;2.60;;;;;;;;;;6698715;26;20011;-78
2024/04/24 12:53:06;;;;;;;3.03;2.73;;;;;;;;;;6684349;26;20004;-77
2024/04/24 12:56:06;;;;;;;3.13;2.83;;;;;;;;;;6684618;26;20015;-78
2024/04/24 12:59:07;;;;;;;3.37;2.83;;;;;;;;;;6693386;26;19995;-77
2024/04/24 13:02:08;;;;;;;4.63;2.87;;;;;;;;;;6687656;26;20008;-77
2024/04/24 13:05:10;;;;;;;3.75;2.67;;;;;;;;;;6690738;26;20000;-78
2024/04/24 13:08:10;;;;;;;3.90;3.10;;;;;;;;;;6699308;26;20008;-77
2024/04/24 13:11:11;;;;;;;3.17;2.70;;;;;;;;;;6685273;26;20007;-77
2024/04/24 13:14:11;;;;;;;3.43;3.13;;;;;;;;;;6679424;26;20019;-77
2024/04/24 13:17:11;;;;;;;3.10;2.80;;;;;;;;;;6704580;26;20040;-78
2024/04/24 13:20:12;;;;;;;3.57;3.07;;;;;;;;;;6687235;26;20345;-77
2024/04/24 13:23:12;;;;;;;3.47;3.17;;;;;;;;;;6675418;26;20019;-78
2024/04/24 13:26:12;;;;;;;3.53;2.83;;;;;;;;;;6667514;26;20011;-77
2024/04/24 13:29:13;;;;;;;3.33;3.03;;;;;;;;;;6681295;26;20011;-77
2024/04/24 13:32:13;;;;;;;3.37;3.07;;;;;;;;;;6681585;26;20413;-78
2024/04/24 13:35:14;;;;;;;4.57;3.27;;;;;;;;;;6685732;26;20001;-78
2024/04/24 13:38:15;;;;;;;3.65;3.20;;;;;;;;;;6693034;26;20000;-77
2024/04/24 13:41:16;;;;;;;4.07;3.42;;;;;;;;;;6682235;26;20039;-78
2024/04/24 13:44:17;;;;;;;3.53;3.22;;;;;;;;;;6683015;26;20858;-77
2024/04/24 13:47:19;;;;;;;3.43;2.87;;;;;;;;;;6672795;26;19996;-77
2024/04/24 13:50:19;;;;;;;3.33;3.03;;;;;;;;;;6705241;26;20004;-77
2024/04/24 13:53:19;;;;;;;3.70;2.53;;;;;;;;;;6682647;26;20370;-77
2024/04/24 13:56:20;;;;;;;2.70;2.50;;;;;;;;;;6691058;26;20442;-77
2024/04/24 13:59:20;;;;;;;2.83;2.57;;;;;;;;;;6694944;26;20429;-76
2024/04/24 14:02:20;;;;;;;2.67;2.43;;;;;;;;;;6700987;26;20938;-77
2024/04/24 14:05:22;;;;;;;3.00;2.80;;;;;;;;;;6696210;26;20406;-77
2024/04/24 14:08:23;;;;;;;5.05;3.47;;;;;;;;;;6686121;26;20005;-77
2024/04/24 14:11:23;;;;;;;4.03;3.60;;;;;;;;;;6682329;26;20044;-77
2024/04/24 14:14:23;;;;;;;2.90;2.60;;;;;;;;;;6679110;26;20008;-77
2024/04/24 14:17:25;;;;;;;2.40;2.20;;;;;;;;;;6681163;26;20004;-76
2024/04/24 14:20:25;;;;;;;2.22;2.03;;;;;;;;;;6675465;26;20011;-76
2024/04/24 14:23:25;;;;;;;1.70;1.60;;;;;;;;;;6689886;26;20074;-77
2024/04/24 14:26:26;;;;;;;2.07;1.87;;;;;;;;;;6694150;26;20003;-76
2024/04/24 14:29:26;;;;;;;1.93;1.83;;;;;;;;;;6687418;26;20333;-76
2024/04/24 14:32:26;;;;;;;2.03;1.67;;;;;;;;;;6677997;26;20441;-77
2024/04/24 14:35:26;;;;;;;1.90;1.77;;;;;;;;;;6678547;26;19996;-76
2024/04/24 14:38:27;;;;;;;1.83;1.73;;;;;;;;;;6683103;26;20015;-76
2024/04/24 14:41:27;;;;;;;1.80;1.70;;;;;;;;;;6688589;26;20015;-77
2024/04/24 14:44:27;;;;;;;2.20;1.97;;;;;;;;;;6684077;26;20384;-77
2024/04/24 14:47:27;;;;;;;2.03;1.73;;;;;;;;;;6687481;26;20000;-77
2024/04/24 14:50:28;;;;;;;2.10;1.90;;;;;;;;;;6684135;26;20000;-77
2024/04/24 14:53:28;;;;;;;1.70;1.60;;;;;;;;;;6692276;26;19996;-78
2024/04/24 14:56:28;;;;;;;1.90;1.70;;;;;;;;;;6681780;26;20000;-77
2024/04/24 14:59:29;;;;;;;1.73;1.63;;;;;;;;;;6691984;26;20506;-77
2024/04/24 15:02:29;;;;;;;1.90;1.70;;;;;;;;;;6695653;26;20026;-77
2024/04/24 15:05:29;;;;;;;2.00;1.80;;;;;;;;;;6666642;26;20433;-77
2024/04/24 15:08:30;;;;;;;1.83;1.63;;;;;;;;;;6685557;26;20447;-78
2024/04/24 15:11:30;;;;;;;2.60;1.92;;;;;;;;;;6680625;26;20340;-77
2024/04/24 15:14:33;;;;;;;1.50;1.40;;;;;;;;;;6686469;26;20445;-77
2024/04/24 15:17:34;;;;;;;1.90;1.38;;;;;;;;;;6674279;26;19999;-77
2024/04/24 15:20:34;;;;;;;;;;;;;;;;;;6684198;26;20429;-77
2024/04/24 15:23:35;;;;;;;1.15;1.05;;;;;;;;;;6676708;26;19931;-77
2024/04/24 15:26:35;;;;;;;1.37;1.27;;;;;;;;;;6684337;26;20015;-77
2024/04/24 15:29:35;;;;;;;1.80;1.20;;;;;;;;;;6677415;26;20005;-77
2024/04/24 15:32:35;;;;;;;1.37;1.27;;;;;;;;;;6682237;26;20012;-77
2024/04/24 15:35:35;;;;;;;1.20;1.10;;;;;;;;;;6687787;26;20013;-77
2024/04/24 15:38:36;;;;;;;1.47;1.20;;;;;;;;;;6700316;26;20007;-77
2024/04/24 15:41:37;;;;;;;1.47;1.37;;;;;;;;;;6687230;26;20004;-77
2024/04/24 15:44:38;;;;;;;2.42;1.58;;;;;;;;;;6647218;26;19996;-77
2024/04/24 15:47:38;;;;;;;1.43;1.33;;;;;;;;;;6681959;26;20052;-79
2024/04/24 15:50:38;;;;;;;1.50;1.40;;;;;;;;;;6682926;26;20448;-79
2024/04/24 15:53:39;;;;;;;1.50;1.27;;;;;;;;;;6677148;26;20019;-79
2024/04/24 15:56:39;;;;;;;1.50;1.40;;;;;;;;;;6687869;26;20043;-78
2024/04/24 15:59:39;;;;;;;3.27;2.63;;;;;;;;;;6685066;26;20004;-78
2024/04/24 16:02:39;;;;;;;2.50;2.27;;;;;;;;;;6681758;26;20000;-78
2024/04/24 16:05:40;;;;;;;1.90;1.70;;;;;;;;;;6680835;26;20040;-78
2024/04/24 16:08:40;;;;;;;1.83;1.73;;;;;;;;;;6672779;26;20019;-79
2024/04/24 16:11:40;;;;;;;1.80;1.50;;;;;;;;;;6691422;26;20002;-78
2024/04/24 16:14:40;;;;;;;1.63;1.53;;;;;;;;;;6678153;26;20429;-78
2024/04/24 16:17:41;;;;;;;1.20;1.10;;;;;;;;;;6700039;26;20535;-77
2024/04/24 16:20:41;;;;;;;1.83;1.67;;;;;;;;;;6693753;26;20407;-77
2024/04/24 16:23:41;;;;;;;1.30;1.20;;;;;;;;;;6680635;26;20073;-77
2024/04/24 16:26:42;;;;;;;1.50;1.27;;;;;;;;;;6679362;26;20043;-77
2024/04/24 16:29:43;;;;;;;3.23;2.00;;;;;;;;;;6678941;26;19992;-77
2024/04/24 16:32:44;;;;;;;2.10;1.90;;;;;;;;;;6678617;26;19996;-77
2024/04/24 16:35:44;;;;;;;2.33;1.50;;;;;;;;;;6684974;26;20489;-77
2024/04/24 16:38:45;;;;;;;2.57;1.40;;;;;;;;;;6683404;26;20015;-77
2024/04/24 16:41:46;;;;;;;1.60;1.50;;;;;;;;;;6678787;26;20003;-77
2024/04/24 16:44:46;;;;;;;;;;;;;;;;;;6688615;26;20011;-77
2024/04/24 16:47:47;;;;;;;0.82;0.82;;;;;;;;;;6692480;26;19953;-78
2024/04/24 16:50:47;;;;;;;1.90;1.20;;;;;;;;;;6693106;26;20023;-78
2024/04/24 16:53:47;;;;;;;1.30;1.20;;;;;;;;;;6737281;26;20027;-78
2024/04/24 16:56:48;;;;;;;1.20;1.00;;;;;;;;;;6689569;26;20018;-78
2024/04/24 16:59:49;;;;;;;1.80;1.35;;;;;;;;;;6693679;26;20012;-77
2024/04/24 17:02:49;;;;;;;1.43;1.17;;;;;;;;;;6689454;26;20003;-76
2024/04/24 17:05:49;;;;;;;1.90;1.10;;;;;;;;;;6668055;26;20445;-76
2024/04/24 17:08:49;;;;;;;2.10;1.00;;;;;;;;;;6681299;26;20004;-76
2024/04/24 17:11:50;;;;;;;1.43;1.33;;;;;;;;;;6677662;26;20000;-76
2024/04/24 17:14:50;;;;;;;1.30;1.20;;;;;;;;;;6684674;26;20543;-76
2024/04/24 17:17:51;;;;;;;1.40;1.30;;;;;;;;;;6680311;26;20357;-76
2024/04/24 17:20:54;;;;;;;1.55;1.40;;;;;;;;;;6654781;26;20077;-76
2024/04/24 17:23:55;;;;;;;1.42;1.33;;;;;;;;;;6684748;26;20429;-76
2024/04/24 17:26:55;;;;;;;2.13;1.27;;;;;;;;;;6677972;26;20067;-78
2024/04/24 17:29:56;;;;;;;1.33;1.23;;;;;;;;;;6683227;26;20056;-78
2024/04/24 17:32:56;;;;;;;1.23;1.13;;;;;;;;;;6697366;26;20261;-78
2024/04/24 17:35:57;;;;;;;1.60;1.30;;;;;;;;;;6717996;26;20006;-78
2024/04/24 17:38:57;;;;;;;1.50;1.23;;;;;;;;;;6716687;26;19999;-80
2024/04/24 17:41:57;;;;;;;4.13;2.80;;;;;;;;;;6723972;26;20346;-82
2024/04/24 17:44:58;;;;;;;2.33;2.13;;;;;;;;;;6695790;26;20318;-76
2024/04/24 17:47:58;;;;;;;1.60;1.50;;;;;;;;;;6691333;26;20037;-77
2024/04/24 17:50:59;;;;;;;1.77;1.20;;;;;;;;;;6685634;26;20007;-77
2024/04/24 17:53:59;;;;;;;1.30;1.20;;;;;;;;;;6677872;26;20437;-76
2024/04/24 17:57:00;;;;;;;1.50;1.30;;;;;;;;;;6682510;26;20439;-77
2024/04/24 18:00:00;;;;;;;1.30;1.20;;;;;;;;;;6696682;26;20410;-76
2024/04/24 18:03:01;;;;;;;1.98;1.27;;;;;;;;;;6684554;26;20065;-77
2024/04/24 18:06:01;;;;;;;1.40;1.20;;;;;;;;;;6686509;26;19996;-77
2024/04/24 18:09:02;;;;;;;1.30;1.20;;;;;;;;;;6677613;26;20449;-77